Time;durP1;ratioP1;P1;durP2;ratioP2;P2;SDS_P1;SDS_P2;PMS_P1;PMS_P2;Temp;Humidity;BMP_temperature;BMP_pressure;BME280_temperature;BME280_humidity;BME280_pressure;Samples;Min_cycle;Max_cycle;Signal;HPM_P1;HPM_P2
2023/07/07 00:00:29;;;;;;;2.40;2.08;;;;;;;;;;5014267;28;20191;-50
2023/07/07 00:02:55;;;;;;;3.33;2.17;;;;;;;;;;5014182;28;20192;-50
2023/07/07 00:05:21;;;;;;;2.33;1.90;;;;;;;;;;5014033;28;20201;-50
2023/07/07 00:07:48;;;;;;;2.38;2.13;;;;;;;;;;5013618;28;20223;-50
2023/07/07 00:10:14;;;;;;;3.90;2.35;;;;;;;;;;5013949;28;20283;-49
2023/07/07 00:12:40;;;;;;;2.88;2.20;;;;;;;;;;5014106;28;20268;-50
2023/07/07 00:15:07;;;;;;;3.47;2.47;;;;;;;;;;5017444;28;20219;-50
2023/07/07 00:17:33;;;;;;;2.63;2.13;;;;;;;;;;5013030;28;20228;-49
2023/07/07 00:20:09;;;;;;;2.88;2.10;;;;;;;;;;5014473;28;20478;-50
2023/07/07 00:22:35;;;;;;;1.98;1.80;;;;;;;;;;5013438;28;20218;-50
2023/07/07 00:25:02;;;;;;;4.82;2.30;;;;;;;;;;5013718;28;20204;-50
2023/07/07 00:27:27;;;;;;;2.83;2.08;;;;;;;;;;5013515;28;20451;-50
2023/07/07 00:29:53;;;;;;;3.17;2.33;;;;;;;;;;5013523;28;20180;-49
2023/07/07 00:32:19;;;;;;;3.25;2.40;;;;;;;;;;5014305;28;20513;-50
2023/07/07 00:34:45;;;;;;;2.63;1.95;;;;;;;;;;5017866;28;20181;-50
2023/07/07 00:37:11;;;;;;;3.85;2.13;;;;;;;;;;5016295;28;20181;-50
2023/07/07 00:39:37;;;;;;;5.97;2.30;;;;;;;;;;5017317;28;20185;-50
2023/07/07 00:42:03;;;;;;;3.35;2.40;;;;;;;;;;5017539;28;20568;-50
2023/07/07 00:44:49;;;;;;;2.40;2.15;;;;;;;;;;5022706;28;20172;-50
2023/07/07 00:47:15;;;;;;;4.85;2.40;;;;;;;;;;5016921;28;20515;-50
2023/07/07 00:49:41;;;;;;;2.58;2.33;;;;;;;;;;5016946;28;20184;-53
2023/07/07 00:52:07;;;;;;;2.47;2.05;;;;;;;;;;5016943;28;20176;-49
2023/07/07 00:54:34;;;;;;;3.58;2.67;;;;;;;;;;5021635;28;20250;-50
2023/07/07 00:57:00;;;;;;;2.90;2.30;;;;;;;;;;5021662;28;20538;-50
2023/07/07 00:59:34;;;;;;;2.72;2.25;;;;;;;;;;5016663;28;20193;-50
2023/07/07 01:02:02;;;;;;;2.58;2.22;;;;;;;;;;5016776;28;20185;-50
2023/07/07 01:04:29;;;;;;;2.20;2.10;;;;;;;;;;5021627;28;20263;-49
2023/07/07 01:06:59;;;;;;;3.25;2.20;;;;;;;;;;5016685;28;20234;-50
2023/07/07 01:09:25;;;;;;;2.30;2.10;;;;;;;;;;5016839;28;20239;-50
2023/07/07 01:11:51;;;;;;;2.88;2.03;;;;;;;;;;5017187;28;20208;-49
2023/07/07 01:14:19;;;;;;;2.67;2.30;;;;;;;;;;5016800;28;20186;-50
2023/07/07 01:16:54;;;;;;;3.63;2.55;;;;;;;;;;5016586;28;20536;-49
2023/07/07 01:19:45;;;;;;;2.15;1.95;;;;;;;;;;5016168;28;20208;-50
2023/07/07 01:22:29;;;;;;;2.83;2.17;;;;;;;;;;5016494;28;20199;-49
2023/07/07 01:24:58;;;;;;;2.40;2.20;;;;;;;;;;5012304;28;20195;-49
2023/07/07 01:27:43;;;;;;;2.83;2.00;;;;;;;;;;5016386;28;20234;-50
2023/07/07 01:30:29;;;;;;;3.67;2.40;;;;;;;;;;5015852;28;20173;-50
2023/07/07 01:32:55;;;;;;;3.03;2.15;;;;;;;;;;5016604;28;20255;-49
2023/07/07 01:35:22;;;;;;;6.07;1.83;;;;;;;;;;5017264;28;20188;-50
2023/07/07 01:37:55;;;;;;;3.25;2.58;;;;;;;;;;5014991;28;20429;-49
2023/07/07 01:40:30;;;;;;;3.80;2.03;;;;;;;;;;5016105;28;20241;-50
2023/07/07 01:42:58;;;;;;;2.92;1.98;;;;;;;;;;5009097;28;20187;-50
2023/07/07 01:45:24;;;;;;;3.08;2.10;;;;;;;;;;5015432;28;20201;-50
2023/07/07 01:47:53;;;;;;;2.70;2.05;;;;;;;;;;5015492;28;20677;-50
2023/07/07 01:50:22;;;;;;;2.70;2.28;;;;;;;;;;5016017;28;20230;-50
2023/07/07 01:53:00;;;;;;;4.10;2.47;;;;;;;;;;5015831;28;20238;-50
2023/07/07 01:55:31;;;;;;;2.20;2.00;;;;;;;;;;5016251;28;20184;-49
2023/07/07 01:57:59;;;;;;;2.50;2.22;;;;;;;;;;5015339;28;20219;-50
2023/07/07 02:00:26;;;;;;;3.03;2.13;;;;;;;;;;5015562;28;20184;-50
2023/07/07 02:02:53;;;;;;;2.15;1.92;;;;;;;;;;5015527;28;20224;-50
2023/07/07 02:05:18;;;;;;;2.40;2.13;;;;;;;;;;5016180;28;20232;-50
2023/07/07 02:07:44;;;;;;;3.45;2.45;;;;;;;;;;5015283;28;20350;-50
2023/07/07 02:10:11;;;;;;;3.35;2.40;;;;;;;;;;5015582;28;20232;-50
2023/07/07 02:12:37;;;;;;;2.60;2.25;;;;;;;;;;5021333;28;20180;-49
2023/07/07 02:15:04;;;;;;;4.50;2.30;;;;;;;;;;5017957;28;20203;-50
2023/07/07 02:17:30;;;;;;;3.15;2.15;;;;;;;;;;5018374;28;20184;-50
2023/07/07 02:19:56;;;;;;;2.28;2.05;;;;;;;;;;5015450;28;20188;-49
2023/07/07 02:22:22;;;;;;;2.65;2.05;;;;;;;;;;5015381;28;20196;-50
2023/07/07 02:24:48;;;;;;;2.85;2.15;;;;;;;;;;5019481;28;20697;-50
2023/07/07 02:27:14;;;;;;;3.78;2.00;;;;;;;;;;5019797;28;20223;-49
2023/07/07 02:29:40;;;;;;;2.10;1.90;;;;;;;;;;5014547;28;20180;-50
2023/07/07 02:32:07;;;;;;;2.92;2.30;;;;;;;;;;5015866;28;20496;-49
2023/07/07 02:34:33;;;;;;;2.33;2.13;;;;;;;;;;5017779;28;20697;-50
2023/07/07 02:36:59;;;;;;;3.25;1.90;;;;;;;;;;5016850;28;20189;-50
2023/07/07 02:39:25;;;;;;;3.28;2.10;;;;;;;;;;5012147;28;20587;-50
2023/07/07 02:41:51;;;;;;;2.20;2.00;;;;;;;;;;5013922;28;20184;-51
2023/07/07 02:44:17;;;;;;;3.50;2.00;;;;;;;;;;5018590;28;20181;-50
2023/07/07 02:46:44;;;;;;;2.92;2.10;;;;;;;;;;5006929;28;20258;-49
2023/07/07 02:49:10;;;;;;;2.60;2.08;;;;;;;;;;5014450;28;20227;-50
2023/07/07 02:51:36;;;;;;;3.55;2.00;;;;;;;;;;5014964;28;20189;-50
2023/07/07 02:54:02;;;;;;;2.58;2.30;;;;;;;;;;5021058;28;20602;-50
2023/07/07 02:56:28;;;;;;;2.53;2.33;;;;;;;;;;5014437;28;20196;-50
2023/07/07 02:58:54;;;;;;;2.92;2.25;;;;;;;;;;5014474;28;20247;-50
2023/07/07 03:01:20;;;;;;;2.40;2.20;;;;;;;;;;5015651;28;20184;-50
2023/07/07 03:03:48;;;;;;;3.25;2.03;;;;;;;;;;5015732;28;20188;-49
2023/07/07 03:06:16;;;;;;;4.95;2.03;;;;;;;;;;5018104;28;20200;-50
2023/07/07 03:08:42;;;;;;;2.28;2.08;;;;;;;;;;5013947;28;20238;-50
2023/07/07 03:11:10;;;;;;;2.63;2.15;;;;;;;;;;5014858;28;20196;-50
2023/07/07 03:13:36;;;;;;;2.40;2.20;;;;;;;;;;5014700;28;20460;-49
2023/07/07 03:16:12;;;;;;;4.53;2.50;;;;;;;;;;5020986;28;20560;-50
2023/07/07 03:18:41;;;;;;;4.60;2.38;;;;;;;;;;5013874;28;20190;-49
2023/07/07 03:21:08;;;;;;;2.72;2.08;;;;;;;;;;5014777;28;20184;-50
2023/07/07 03:23:34;;;;;;;3.25;2.08;;;;;;;;;;5014620;28;20266;-49
2023/07/07 03:26:11;;;;;;;3.47;2.22;;;;;;;;;;5018897;28;20219;-50
2023/07/07 03:28:37;;;;;;;2.63;1.98;;;;;;;;;;5013497;28;20180;-51
2023/07/07 03:31:10;;;;;;;3.33;2.33;;;;;;;;;;5013874;28;20421;-50
2023/07/07 03:33:38;;;;;;;3.42;2.00;;;;;;;;;;5012623;28;20183;-50
2023/07/07 03:36:04;;;;;;;2.28;2.08;;;;;;;;;;5020646;28;20192;-50
2023/07/07 03:38:30;;;;;;;2.22;2.03;;;;;;;;;;5013762;28;20251;-49
2023/07/07 03:40:56;;;;;;;2.60;1.90;;;;;;;;;;5015638;28;20291;-49
2023/07/07 03:43:22;;;;;;;3.50;2.63;;;;;;;;;;5013943;28;20538;-50
2023/07/07 03:45:48;;;;;;;2.65;2.17;;;;;;;;;;5013990;28;20210;-50
2023/07/07 03:48:14;;;;;;;3.13;2.33;;;;;;;;;;5013968;28;20255;-50
2023/07/07 03:50:40;;;;;;;2.50;2.00;;;;;;;;;;5014206;28;20199;-49
2023/07/07 03:53:06;;;;;;;2.97;2.67;;;;;;;;;;5014416;28;20172;-50
2023/07/07 03:55:32;;;;;;;2.65;2.40;;;;;;;;;;5014121;28;20420;-50
2023/07/07 03:57:58;;;;;;;2.55;2.35;;;;;;;;;;5013235;28;20270;-49
2023/07/07 04:00:24;;;;;;;3.40;2.35;;;;;;;;;;5014173;28;20200;-50
2023/07/07 04:02:50;;;;;;;4.20;3.00;;;;;;;;;;5013903;28;20565;-50
2023/07/07 04:05:16;;;;;;;4.10;2.50;;;;;;;;;;5013972;28;20283;-49
2023/07/07 04:07:42;;;;;;;3.33;2.50;;;;;;;;;;5015997;28;20198;-50
2023/07/07 04:10:08;;;;;;;2.95;2.60;;;;;;;;;;5017804;28;20202;-50
2023/07/07 04:12:34;;;;;;;3.10;2.22;;;;;;;;;;5017537;28;20188;-49
2023/07/07 04:15:00;;;;;;;2.95;2.40;;;;;;;;;;5017678;28;20266;-49
2023/07/07 04:17:26;;;;;;;4.55;2.42;;;;;;;;;;5017562;28;20295;-50
2023/07/07 04:19:52;;;;;;;2.97;2.30;;;;;;;;;;5017584;28;20176;-50
2023/07/07 04:22:18;;;;;;;4.00;2.30;;;;;;;;;;5017583;28;20204;-49
2023/07/07 04:24:44;;;;;;;3.78;2.53;;;;;;;;;;5017209;28;20270;-49
2023/07/07 04:27:10;;;;;;;3.50;2.47;;;;;;;;;;5016805;28;20283;-50
2023/07/07 04:29:37;;;;;;;4.20;2.58;;;;;;;;;;4999721;28;20468;-49
2023/07/07 04:32:05;;;;;;;3.80;2.65;;;;;;;;;;5017218;28;20508;-50
2023/07/07 04:34:31;;;;;;;3.38;2.63;;;;;;;;;;5017702;28;20180;-49
2023/07/07 04:36:57;;;;;;;3.30;2.33;;;;;;;;;;5017111;28;20230;-49
2023/07/07 04:39:24;;;;;;;3.47;2.22;;;;;;;;;;5017062;28;20279;-50
2023/07/07 04:41:51;;;;;;;3.33;2.65;;;;;;;;;;5017615;28;20472;-49
2023/07/07 04:44:16;;;;;;;3.25;2.72;;;;;;;;;;5017628;28;20173;-50
2023/07/07 04:46:42;;;;;;;3.63;2.80;;;;;;;;;;5017372;28;20208;-50
2023/07/07 04:49:09;;;;;;;3.53;2.80;;;;;;;;;;5016954;28;20211;-50
2023/07/07 04:51:38;;;;;;;3.58;2.88;;;;;;;;;;5017114;28;20199;-50
2023/07/07 04:54:05;;;;;;;4.38;2.90;;;;;;;;;;5016807;28;20196;-49
2023/07/07 04:56:33;;;;;;;7.55;2.92;;;;;;;;;;5016614;28;20188;-50
2023/07/07 04:58:59;;;;;;;4.22;2.92;;;;;;;;;;5016664;28;20283;-49
2023/07/07 05:01:26;;;;;;;3.97;2.95;;;;;;;;;;5016971;28;20185;-50
2023/07/07 05:03:53;;;;;;;4.20;2.92;;;;;;;;;;5014817;28;20299;-48
2023/07/07 05:06:20;;;;;;;4.20;3.15;;;;;;;;;;5017360;28;20227;-50
2023/07/07 05:08:46;;;;;;;4.03;3.00;;;;;;;;;;5015897;28;20192;-50
2023/07/07 05:11:13;;;;;;;6.28;3.50;;;;;;;;;;5017182;28;20183;-50
2023/07/07 05:13:39;;;;;;;4.30;3.42;;;;;;;;;;5017122;28;20191;-50
2023/07/07 05:16:07;;;;;;;6.93;2.90;;;;;;;;;;5016879;28;20184;-49
2023/07/07 05:18:33;;;;;;;11.07;3.78;;;;;;;;;;5015898;28;20188;-49
2023/07/07 05:20:59;;;;;;;11.40;4.43;;;;;;;;;;4999321;28;20445;-50
2023/07/07 05:23:25;;;;;;;7.70;3.40;;;;;;;;;;5016692;28;20802;-49
2023/07/07 05:25:52;;;;;;;8.35;3.00;;;;;;;;;;5016290;28;20587;-49
2023/07/07 05:28:18;;;;;;;6.47;3.90;;;;;;;;;;5016468;28;20181;-50
2023/07/07 05:30:44;;;;;;;5.88;3.17;;;;;;;;;;5015637;28;20496;-50
2023/07/07 05:33:10;;;;;;;5.00;2.90;;;;;;;;;;5016706;28;20202;-50
2023/07/07 05:35:37;;;;;;;4.80;3.03;;;;;;;;;;4999313;28;20180;-49
2023/07/07 05:38:03;;;;;;;4.63;2.83;;;;;;;;;;5015010;28;20188;-50
2023/07/07 05:40:29;;;;;;;3.80;2.80;;;;;;;;;;5016377;28;20192;-50
2023/07/07 05:42:55;;;;;;;3.80;2.78;;;;;;;;;;5016177;28;20196;-50
2023/07/07 05:45:22;;;;;;;3.10;2.80;;;;;;;;;;5016141;28;20218;-50
2023/07/07 05:47:48;;;;;;;3.95;2.95;;;;;;;;;;5015727;28;20183;-49
2023/07/07 05:50:14;;;;;;;6.38;2.90;;;;;;;;;;5016260;28;20496;-50
2023/07/07 05:52:40;;;;;;;3.45;2.70;;;;;;;;;;5015757;28;20180;-50
2023/07/07 05:55:06;;;;;;;3.72;2.63;;;;;;;;;;5015927;28;20181;-50
2023/07/07 05:57:32;;;;;;;4.90;2.88;;;;;;;;;;4998555;28;20231;-49
2023/07/07 05:59:58;;;;;;;7.13;3.13;;;;;;;;;;5015252;28;20651;-48
2023/07/07 06:02:24;;;;;;;4.75;3.10;;;;;;;;;;5015795;28;20259;-49
2023/07/07 06:04:50;;;;;;;5.82;2.50;;;;;;;;;;5015963;28;20627;-48
2023/07/07 06:07:16;;;;;;;5.07;2.45;;;;;;;;;;5015274;28;20185;-49
2023/07/07 06:09:48;;;;;;;8.88;3.22;;;;;;;;;;5015432;28;20831;-49
2023/07/07 06:12:14;;;;;;;4.05;2.67;;;;;;;;;;5015588;28;20188;-49
2023/07/07 06:14:40;;;;;;;6.35;2.78;;;;;;;;;;5015672;28;20247;-49
2023/07/07 06:17:06;;;;;;;4.15;2.60;;;;;;;;;;5015112;28;20456;-48
2023/07/07 06:19:32;;;;;;;6.70;2.63;;;;;;;;;;5015515;28;20212;-49
2023/07/07 06:21:58;;;;;;;6.72;2.83;;;;;;;;;;5015151;28;20215;-49
2023/07/07 06:24:24;;;;;;;8.23;2.47;;;;;;;;;;4998114;28;20398;-49
2023/07/07 06:26:50;;;;;;;4.68;2.60;;;;;;;;;;5015174;28;20235;-49
2023/07/07 06:29:15;;;;;;;4.47;2.47;;;;;;;;;;5014007;28;20173;-49
2023/07/07 06:31:41;;;;;;;3.13;2.30;;;;;;;;;;5014468;28;20216;-49
2023/07/07 06:34:07;;;;;;;3.22;2.20;;;;;;;;;;5015225;28;20296;-48
2023/07/07 06:36:33;;;;;;;4.72;2.55;;;;;;;;;;5015166;28;20198;-49
2023/07/07 06:38:59;;;;;;;5.45;2.28;;;;;;;;;;5014774;28;20598;-50
2023/07/07 06:41:25;;;;;;;3.05;2.15;;;;;;;;;;5014888;28;20231;-49
2023/07/07 06:43:53;;;;;;;4.13;2.47;;;;;;;;;;5014006;28;20508;-49
2023/07/07 06:46:19;;;;;;;3.45;2.30;;;;;;;;;;5014893;28;20211;-49
2023/07/07 06:48:45;;;;;;;3.08;2.33;;;;;;;;;;5014477;28;20188;-48
2023/07/07 06:51:11;;;;;;;2.92;2.42;;;;;;;;;;5014771;28;20192;-49
2023/07/07 06:53:37;;;;;;;5.65;2.72;;;;;;;;;;5014646;28;20184;-49
2023/07/07 06:56:03;;;;;;;5.13;2.50;;;;;;;;;;5014912;28;20181;-49
2023/07/07 06:58:30;;;;;;;2.60;2.40;;;;;;;;;;5014627;28;20602;-49
2023/07/07 07:00:56;;;;;;;3.13;2.30;;;;;;;;;;5014770;28;20265;-49
2023/07/07 07:03:22;;;;;;;2.72;2.15;;;;;;;;;;5007996;28;20224;-49
2023/07/07 07:05:48;;;;;;;3.50;1.92;;;;;;;;;;5014838;28;20215;-50
2023/07/07 07:08:14;;;;;;;3.28;2.45;;;;;;;;;;5014193;28;20525;-49
2023/07/07 07:10:40;;;;;;;3.17;2.20;;;;;;;;;;5014597;28;20191;-49
2023/07/07 07:13:07;;;;;;;3.55;2.35;;;;;;;;;;5014770;28;20181;-49
2023/07/07 07:15:33;;;;;;;4.80;2.20;;;;;;;;;;5014744;28;20214;-49
2023/07/07 07:18:00;;;;;;;2.40;2.20;;;;;;;;;;5014209;28;20263;-49
2023/07/07 07:20:25;;;;;;;4.80;2.33;;;;;;;;;;5014899;28;20193;-49
2023/07/07 07:22:51;;;;;;;2.45;2.17;;;;;;;;;;5013966;28;20610;-49
2023/07/07 07:25:17;;;;;;;2.60;2.20;;;;;;;;;;5014395;28;20310;-49
2023/07/07 07:27:43;;;;;;;2.50;2.22;;;;;;;;;;5014398;28;20184;-48
2023/07/07 07:30:12;;;;;;;3.45;2.20;;;;;;;;;;5014041;28;20191;-48
2023/07/07 07:32:38;;;;;;;2.83;2.10;;;;;;;;;;5014556;28;20173;-48
2023/07/07 07:35:04;;;;;;;3.78;2.17;;;;;;;;;;5014520;28;20586;-49
2023/07/07 07:37:30;;;;;;;3.03;2.30;;;;;;;;;;5013982;28;20514;-49
2023/07/07 07:39:56;;;;;;;4.72;2.10;;;;;;;;;;5014439;28;20180;-49
2023/07/07 07:42:22;;;;;;;2.22;1.98;;;;;;;;;;5016339;28;20792;-50
2023/07/07 07:44:48;;;;;;;2.30;2.10;;;;;;;;;;5018526;28;20212;-49
2023/07/07 07:47:14;;;;;;;2.40;2.20;;;;;;;;;;5017903;28;20283;-49
2023/07/07 07:49:40;;;;;;;4.07;2.10;;;;;;;;;;5018115;28;20268;-49
2023/07/07 07:52:07;;;;;;;3.25;2.00;;;;;;;;;;5017875;28;20585;-49
2023/07/07 07:54:33;;;;;;;3.13;2.35;;;;;;;;;;5018347;28;20985;-49
2023/07/07 07:56:59;;;;;;;2.53;2.22;;;;;;;;;;5018157;28;20199;-50
2023/07/07 07:59:25;;;;;;;3.78;2.33;;;;;;;;;;5018038;28;20215;-49
2023/07/07 08:01:51;;;;;;;3.97;2.03;;;;;;;;;;5017962;28;20279;-49
2023/07/07 08:04:17;;;;;;;3.50;2.30;;;;;;;;;;5018004;28;20271;-50
2023/07/07 08:06:42;;;;;;;3.70;2.08;;;;;;;;;;5017714;28;20257;-49
2023/07/07 08:09:08;;;;;;;3.47;2.00;;;;;;;;;;5017768;28;20172;-49
2023/07/07 08:11:43;;;;;;;3.17;2.08;;;;;;;;;;5018039;28;20180;-49
2023/07/07 08:14:12;;;;;;;2.88;2.25;;;;;;;;;;5017838;28;20180;-49
2023/07/07 08:16:38;;;;;;;2.20;1.98;;;;;;;;;;5017382;28;20176;-50
2023/07/07 08:19:04;;;;;;;3.05;2.25;;;;;;;;;;5017537;28;20258;-50
2023/07/07 08:21:30;;;;;;;2.38;2.17;;;;;;;;;;5016984;28;20196;-49
2023/07/07 08:23:56;;;;;;;2.83;2.30;;;;;;;;;;5017098;28;20192;-49
2023/07/07 08:26:22;;;;;;;6.75;2.53;;;;;;;;;;5017439;28;20212;-48
2023/07/07 08:28:48;;;;;;;6.43;2.30;;;;;;;;;;5016325;28;20184;-49
2023/07/07 08:31:14;;;;;;;3.85;2.17;;;;;;;;;;5017657;28;20214;-50
2023/07/07 08:33:43;;;;;;;4.57;2.08;;;;;;;;;;5017754;28;20196;-50
2023/07/07 08:36:09;;;;;;;4.32;2.67;;;;;;;;;;5017174;28;20188;-49
2023/07/07 08:38:35;;;;;;;3.45;2.40;;;;;;;;;;5017250;28;20223;-50
2023/07/07 08:41:01;;;;;;;6.75;2.28;;;;;;;;;;5017593;28;20184;-50
2023/07/07 08:43:29;;;;;;;4.82;2.55;;;;;;;;;;5016876;28;20184;-49
2023/07/07 08:45:55;;;;;;;3.00;2.30;;;;;;;;;;5017467;28;20542;-50
2023/07/07 08:48:32;;;;;;;2.58;2.10;;;;;;;;;;5016734;28;20192;-50
2023/07/07 08:51:04;;;;;;;4.45;2.40;;;;;;;;;;5017256;28;20184;-49
2023/07/07 08:53:42;;;;;;;3.03;2.20;;;;;;;;;;5015953;28;20560;-50
2023/07/07 08:56:14;;;;;;;6.28;2.50;;;;;;;;;;5013915;28;20195;-50
2023/07/07 08:58:53;;;;;;;2.97;2.20;;;;;;;;;;5016830;28;20180;-50
2023/07/07 09:01:29;;;;;;;9.23;2.50;;;;;;;;;;5016855;28;20184;-49
2023/07/07 09:04:17;;;;;;;3.63;2.55;;;;;;;;;;4999740;28;20191;-49
2023/07/07 09:06:55;;;;;;;6.65;2.33;;;;;;;;;;5017062;28;20210;-49
2023/07/07 09:09:20;;;;;;;4.30;2.10;;;;;;;;;;5016030;28;20211;-48
2023/07/07 09:12:04;;;;;;;4.53;2.20;;;;;;;;;;5017102;28;20463;-50
2023/07/07 09:14:30;;;;;;;5.68;2.15;;;;;;;;;;5016502;28;20196;-49
2023/07/07 09:16:58;;;;;;;7.85;2.30;;;;;;;;;;5016820;28;20196;-49
2023/07/07 09:19:35;;;;;;;9.75;2.58;;;;;;;;;;5016615;28;20208;-49
2023/07/07 09:22:16;;;;;;;6.32;2.45;;;;;;;;;;5016811;28;20575;-49
2023/07/07 09:24:48;;;;;;;7.65;2.28;;;;;;;;;;5016191;28;20184;-49
2023/07/07 09:27:17;;;;;;;5.72;2.67;;;;;;;;;;5016056;28;20287;-49
2023/07/07 09:29:43;;;;;;;4.47;2.33;;;;;;;;;;5016033;28;20188;-48
2023/07/07 09:32:11;;;;;;;4.85;2.22;;;;;;;;;;5016715;28;20268;-49
2023/07/07 09:34:37;;;;;;;4.70;2.13;;;;;;;;;;5016530;28;20176;-48
2023/07/07 09:37:03;;;;;;;3.60;2.13;;;;;;;;;;5015530;28;20195;-48
2023/07/07 09:39:38;;;;;;;7.63;2.67;;;;;;;;;;5016031;28;20196;-47
2023/07/07 09:42:22;;;;;;;4.57;2.28;;;;;;;;;;5016564;28;20211;-45
2023/07/07 09:44:57;;;;;;;7.30;2.67;;;;;;;;;;5016069;28;20266;-45
2023/07/07 09:47:41;;;;;;;7.30;2.20;;;;;;;;;;5014028;28;20552;-46
2023/07/07 09:50:16;;;;;;;3.15;2.20;;;;;;;;;;5016318;28;20203;-46
2023/07/07 09:52:47;;;;;;;8.60;2.67;;;;;;;;;;5015771;28;20192;-47
2023/07/07 09:55:19;;;;;;;4.63;2.38;;;;;;;;;;5016053;28;20188;-46
2023/07/07 09:58:00;;;;;;;6.55;2.22;;;;;;;;;;5015059;28;20181;-46
2023/07/07 10:00:27;;;;;;;10.30;3.03;;;;;;;;;;5016288;28;20184;-47
2023/07/07 10:02:53;;;;;;;6.43;2.85;;;;;;;;;;5016029;28;20192;-46
2023/07/07 10:05:22;;;;;;;3.95;1.92;;;;;;;;;;5015694;28;20600;-48
2023/07/07 10:07:48;;;;;;;9.43;2.60;;;;;;;;;;5014883;28;20601;-46
2023/07/07 10:10:14;;;;;;;6.53;2.55;;;;;;;;;;5016186;28;20292;-46
2023/07/07 10:12:41;;;;;;;3.10;2.30;;;;;;;;;;5015617;28;20451;-47
2023/07/07 10:15:24;;;;;;;3.80;2.28;;;;;;;;;;5015388;28;20330;-47
2023/07/07 10:18:03;;;;;;;3.88;2.35;;;;;;;;;;5015591;28;20413;-47
2023/07/07 10:20:30;;;;;;;7.53;2.15;;;;;;;;;;5015589;28;20211;-47
2023/07/07 10:22:56;;;;;;;7.40;2.50;;;;;;;;;;5013928;28;20192;-47
2023/07/07 10:25:24;;;;;;;2.58;2.15;;;;;;;;;;5014468;28;20208;-47
2023/07/07 10:27:55;;;;;;;4.35;2.47;;;;;;;;;;5014922;28;20448;-47
2023/07/07 10:30:21;;;;;;;3.30;2.33;;;;;;;;;;5015494;28;20480;-47
2023/07/07 10:32:47;;;;;;;2.85;2.22;;;;;;;;;;5014975;28;20172;-47
2023/07/07 10:35:18;;;;;;;3.30;2.42;;;;;;;;;;5015522;28;20177;-47
2023/07/07 10:37:45;;;;;;;3.15;2.33;;;;;;;;;;5014770;28;20185;-48
2023/07/07 10:40:14;;;;;;;5.53;2.30;;;;;;;;;;5015249;28;20179;-47
2023/07/07 10:42:40;;;;;;;4.20;2.00;;;;;;;;;;5016940;28;20182;-47
2023/07/07 10:45:07;;;;;;;9.63;2.30;;;;;;;;;;5017145;28;20251;-46
2023/07/07 10:47:33;;;;;;;7.07;2.22;;;;;;;;;;5016506;28;20176;-45
2023/07/07 10:50:00;;;;;;;13.90;2.75;;;;;;;;;;5014837;28;20263;-48
2023/07/07 10:52:41;;;;;;;7.10;2.45;;;;;;;;;;5017329;28;20188;-47
2023/07/07 10:55:26;;;;;;;3.88;2.15;;;;;;;;;;5009985;28;20227;-45
2023/07/07 10:58:11;;;;;;;8.07;2.63;;;;;;;;;;5006968;28;20183;-48
2023/07/07 11:00:50;;;;;;;5.85;2.50;;;;;;;;;;5014956;28;20196;-50
2023/07/07 11:03:49;;;;;;;4.47;2.28;;;;;;;;;;5015587;28;20190;-47
2023/07/07 11:06:27;;;;;;;7.47;2.38;;;;;;;;;;4994403;28;20469;-47
2023/07/07 11:09:08;;;;;;;3.20;2.33;;;;;;;;;;5014789;28;20243;-51
2023/07/07 11:11:45;;;;;;;3.53;2.42;;;;;;;;;;5019911;28;20184;-50
2023/07/07 11:14:20;;;;;;;4.10;2.38;;;;;;;;;;5015138;28;20175;-50
2023/07/07 11:16:50;;;;;;;3.55;2.25;;;;;;;;;;5013939;28;20566;-50
2023/07/07 11:19:16;;;;;;;3.83;2.50;;;;;;;;;;5014382;28;20186;-50
2023/07/07 11:21:54;;;;;;;2.03;1.70;;;;;;;;;;5015597;28;20500;-50
2023/07/07 11:24:26;;;;;;;3.58;2.20;;;;;;;;;;5014551;28;20180;-49
2023/07/07 11:26:52;;;;;;;5.55;2.47;;;;;;;;;;5014123;28;20194;-49
2023/07/07 11:29:18;;;;;;;7.20;2.67;;;;;;;;;;5014577;28;20260;-50
2023/07/07 11:31:56;;;;;;;6.00;2.38;;;;;;;;;;5014829;28;20268;-50
2023/07/07 11:34:36;;;;;;;9.50;3.08;;;;;;;;;;5014606;28;20309;-49
2023/07/07 11:37:05;;;;;;;4.10;2.00;;;;;;;;;;5019824;28;20195;-49
2023/07/07 11:40:09;;;;;;;3.72;2.20;;;;;;;;;;5012849;28;20208;-50
2023/07/07 11:42:46;;;;;;;5.10;2.53;;;;;;;;;;4933597;29;20194;-49
2023/07/07 11:45:30;;;;;;;7.68;2.17;;;;;;;;;;4935105;29;20574;-49
2023/07/07 11:48:09;;;;;;;4.70;2.40;;;;;;;;;;4980470;28;20375;-49
2023/07/07 11:50:54;;;;;;;4.35;2.03;;;;;;;;;;5015617;28;20540;-49
2023/07/07 11:53:26;;;;;;;8.05;2.70;;;;;;;;;;5013702;28;20192;-49
2023/07/07 11:56:04;;;;;;;4.10;2.63;;;;;;;;;;5010206;28;20176;-49
2023/07/07 11:58:38;;;;;;;2.58;2.08;;;;;;;;;;5014036;28;20231;-49
2023/07/07 12:01:13;;;;;;;4.68;2.30;;;;;;;;;;5013805;28;20180;-49
2023/07/07 12:03:42;;;;;;;3.45;2.10;;;;;;;;;;5013578;28;20191;-49
2023/07/07 12:06:15;;;;;;;2.58;2.00;;;;;;;;;;5014028;28;20250;-49
2023/07/07 12:09:05;;;;;;;3.17;2.10;;;;;;;;;;5013351;28;20180;-49
2023/07/07 12:11:34;;;;;;;2.97;2.30;;;;;;;;;;5001253;28;20568;-49
2023/07/07 12:14:11;;;;;;;3.97;2.25;;;;;;;;;;5014340;28;20207;-49
2023/07/07 12:16:39;;;;;;;3.38;2.40;;;;;;;;;;5014085;28;20263;-49
2023/07/07 12:19:14;;;;;;;3.10;2.38;;;;;;;;;;5013124;28;20176;-49
2023/07/07 12:21:40;;;;;;;4.03;2.13;;;;;;;;;;5013858;28;20206;-50
2023/07/07 12:24:16;;;;;;;3.90;2.15;;;;;;;;;;5013935;28;20181;-49
2023/07/07 12:26:45;;;;;;;2.60;1.98;;;;;;;;;;5013692;28;20208;-49
2023/07/07 12:29:12;;;;;;;3.42;2.28;;;;;;;;;;5016277;28;20228;-49
2023/07/07 12:31:38;;;;;;;3.65;2.15;;;;;;;;;;5017498;28;20176;-49
2023/07/07 12:34:20;;;;;;;2.28;1.95;;;;;;;;;;5017845;28;20176;-49
2023/07/07 12:36:47;;;;;;;2.50;2.00;;;;;;;;;;5017423;28;20239;-50
2023/07/07 12:39:13;;;;;;;3.08;2.10;;;;;;;;;;5016805;28;20186;-49
2023/07/07 12:41:39;;;;;;;4.45;2.40;;;;;;;;;;5017695;28;20227;-49
2023/07/07 12:44:05;;;;;;;3.08;1.70;;;;;;;;;;5016949;28;20208;-50
2023/07/07 12:46:35;;;;;;;3.38;2.40;;;;;;;;;;5016790;28;20220;-49
2023/07/07 12:49:06;;;;;;;2.42;1.90;;;;;;;;;;4999670;28;20239;-49
2023/07/07 12:51:35;;;;;;;3.83;2.20;;;;;;;;;;5017166;28;20211;-49
2023/07/07 12:54:01;;;;;;;4.13;1.90;;;;;;;;;;4999305;28;20165;-49
2023/07/07 12:56:28;;;;;;;3.63;2.38;;;;;;;;;;5016581;28;20271;-49
2023/07/07 12:58:55;;;;;;;2.60;2.13;;;;;;;;;;5016699;28;20556;-49
2023/07/07 13:01:40;;;;;;;3.90;2.03;;;;;;;;;;5016898;28;20189;-49
2023/07/07 13:04:13;;;;;;;2.95;2.20;;;;;;;;;;5017293;28;20207;-49
2023/07/07 13:07:03;;;;;;;2.92;2.30;;;;;;;;;;5016573;28;20231;-50
2023/07/07 13:09:42;;;;;;;2.53;2.10;;;;;;;;;;5017162;28;20555;-49
2023/07/07 13:12:28;;;;;;;2.88;2.22;;;;;;;;;;5017259;28;20187;-49
2023/07/07 13:15:03;;;;;;;4.38;2.60;;;;;;;;;;5016751;28;20212;-49
2023/07/07 13:17:28;;;;;;;5.93;2.17;;;;;;;;;;5016271;28;20203;-49
2023/07/07 13:19:59;;;;;;;4.70;2.17;;;;;;;;;;5016544;28;20638;-49
2023/07/07 13:22:33;;;;;;;2.80;2.20;;;;;;;;;;5016877;28;20204;-49
2023/07/07 13:24:59;;;;;;;2.05;1.60;;;;;;;;;;5016850;28;20180;-49
2023/07/07 13:27:25;;;;;;;3.92;2.45;;;;;;;;;;5015775;28;20275;-49
2023/07/07 13:29:55;;;;;;;3.97;2.15;;;;;;;;;;5016841;28;20421;-49
2023/07/07 13:32:25;;;;;;;4.72;2.30;;;;;;;;;;5016961;28;20251;-50
2023/07/07 13:34:51;;;;;;;2.15;1.95;;;;;;;;;;5016399;28;20181;-50
2023/07/07 13:37:17;;;;;;;3.55;2.22;;;;;;;;;;5015746;28;20191;-49
2023/07/07 13:39:44;;;;;;;2.85;1.95;;;;;;;;;;5015659;28;20934;-49
2023/07/07 13:42:19;;;;;;;2.85;2.05;;;;;;;;;;5016149;28;20191;-50
2023/07/07 13:44:45;;;;;;;4.82;2.30;;;;;;;;;;5016376;28;20191;-49
2023/07/07 13:47:14;;;;;;;2.55;2.00;;;;;;;;;;5015591;28;20299;-50
2023/07/07 13:49:40;;;;;;;3.80;2.03;;;;;;;;;;5012877;28;20184;-50
2023/07/07 13:52:14;;;;;;;2.35;1.98;;;;;;;;;;5013000;28;20209;-49
2023/07/07 13:54:40;;;;;;;2.33;2.10;;;;;;;;;;5012976;28;20188;-49
2023/07/07 13:57:07;;;;;;;4.63;2.08;;;;;;;;;;5009199;28;20222;-50
2023/07/07 13:59:33;;;;;;;2.47;1.88;;;;;;;;;;5015880;28;20540;-50
2023/07/07 14:01:59;;;;;;;2.20;2.00;;;;;;;;;;4993128;28;20197;-50
2023/07/07 14:04:27;;;;;;;2.20;1.88;;;;;;;;;;5009515;28;20223;-49
2023/07/07 14:06:54;;;;;;;2.28;2.08;;;;;;;;;;5017121;28;20587;-50
2023/07/07 14:09:21;;;;;;;2.20;2.00;;;;;;;;;;5013587;28;20991;-50
2023/07/07 14:11:50;;;;;;;2.63;1.98;;;;;;;;;;5010846;28;20184;-49
2023/07/07 14:14:16;;;;;;;3.25;2.20;;;;;;;;;;5014780;28;20185;-50
2023/07/07 14:16:44;;;;;;;2.83;2.10;;;;;;;;;;5012371;28;20192;-49
2023/07/07 14:19:37;;;;;;;2.03;1.80;;;;;;;;;;5013653;28;20180;-49
2023/07/07 14:22:04;;;;;;;2.38;2.00;;;;;;;;;;5011258;28;20266;-49
2023/07/07 14:24:31;;;;;;;2.78;2.20;;;;;;;;;;5011667;28;20193;-50
2023/07/07 14:26:57;;;;;;;3.78;2.20;;;;;;;;;;5011110;28;20212;-50
2023/07/07 14:29:27;;;;;;;2.50;2.30;;;;;;;;;;5012300;28;20256;-50
2023/07/07 14:31:53;;;;;;;3.10;1.95;;;;;;;;;;5009570;28;20215;-49
2023/07/07 14:34:19;;;;;;;2.35;1.88;;;;;;;;;;5015347;28;20567;-50
2023/07/07 14:36:47;;;;;;;3.50;2.08;;;;;;;;;;5015022;28;20263;-49
2023/07/07 14:39:36;;;;;;;3.88;2.05;;;;;;;;;;5014851;28;20179;-49
2023/07/07 14:42:16;;;;;;;2.28;1.90;;;;;;;;;;5014895;28;20295;-50
2023/07/07 14:44:47;;;;;;;2.75;2.10;;;;;;;;;;5015233;28;20180;-49
2023/07/07 14:47:16;;;;;;;2.63;2.28;;;;;;;;;;5014413;28;20318;-49
2023/07/07 14:49:42;;;;;;;2.45;2.10;;;;;;;;;;5014923;28;20313;-49
2023/07/07 14:52:14;;;;;;;2.25;2.05;;;;;;;;;;5014167;28;20172;-50
2023/07/07 14:54:41;;;;;;;2.28;1.80;;;;;;;;;;5014642;28;20176;-49